sensor_id;sensor_type;location;lat;lon;timestamp;temperature;humidity
41318;DHT22;27067;51.554;7.026;2023-02-28T00:00:23;15.90;71.10
41318;DHT22;27067;51.554;7.026;2023-02-28T00:02:49;15.90;71.60
41318;DHT22;27067;51.554;7.026;2023-02-28T00:05:17;15.90;71.90
41318;DHT22;27067;51.554;7.026;2023-02-28T00:07:44;15.90;72.00
41318;DHT22;27067;51.554;7.026;2023-02-28T00:10:15;15.90;72.90
41318;DHT22;27067;51.554;7.026;2023-02-28T00:12:44;15.90;72.20
41318;DHT22;27067;51.554;7.026;2023-02-28T00:15:11;15.90;72.30
41318;DHT22;27067;51.554;7.026;2023-02-28T00:17:37;15.90;72.30
41318;DHT22;27067;51.554;7.026;2023-02-28T00:20:04;15.90;72.30
41318;DHT22;27067;51.554;7.026;2023-02-28T00:22:33;15.90;72.30
41318;DHT22;27067;51.554;7.026;2023-02-28T00:24:59;15.90;72.30
41318;DHT22;27067;51.554;7.026;2023-02-28T00:27:25;15.90;72.30
41318;DHT22;27067;51.554;7.026;2023-02-28T00:29:51;15.90;72.30
41318;DHT22;27067;51.554;7.026;2023-02-28T00:32:16;15.90;72.20
41318;DHT22;27067;51.554;7.026;2023-02-28T00:34:44;15.90;72.30
41318;DHT22;27067;51.554;7.026;2023-02-28T00:37:10;15.90;72.30
41318;DHT22;27067;51.554;7.026;2023-02-28T00:39:39;15.90;72.30
41318;DHT22;27067;51.554;7.026;2023-02-28T00:42:06;15.80;72.40
41318;DHT22;27067;51.554;7.026;2023-02-28T00:44:32;15.80;72.30
41318;DHT22;27067;51.554;7.026;2023-02-28T00:46:59;15.80;72.20
41318;DHT22;27067;51.554;7.026;2023-02-28T00:49:25;15.80;72.30
41318;DHT22;27067;51.554;7.026;2023-02-28T00:51:51;15.80;72.40
41318;DHT22;27067;51.554;7.026;2023-02-28T00:54:18;15.80;72.30
41318;DHT22;27067;51.554;7.026;2023-02-28T00:56:43;15.80;72.30
41318;DHT22;27067;51.554;7.026;2023-02-28T00:59:12;15.80;72.40
41318;DHT22;27067;51.554;7.026;2023-02-28T01:01:38;15.80;72.30
41318;DHT22;27067;51.554;7.026;2023-02-28T01:04:04;15.80;72.40
41318;DHT22;27067;51.554;7.026;2023-02-28T01:06:30;15.80;72.40
41318;DHT22;27067;51.554;7.026;2023-02-28T01:08:57;15.80;72.50
41318;DHT22;27067;51.554;7.026;2023-02-28T01:11:23;15.70;72.50
41318;DHT22;27067;51.554;7.026;2023-02-28T01:13:49;15.70;72.60
41318;DHT22;27067;51.554;7.026;2023-02-28T01:16:15;15.70;72.60
41318;DHT22;27067;51.554;7.026;2023-02-28T01:18:41;15.70;72.70
41318;DHT22;27067;51.554;7.026;2023-02-28T01:21:10;15.70;72.80
41318;DHT22;27067;51.554;7.026;2023-02-28T01:23:36;15.70;73.00
41318;DHT22;27067;51.554;7.026;2023-02-28T01:26:11;15.70;73.10
41318;DHT22;27067;51.554;7.026;2023-02-28T01:28:37;15.70;73.20
41318;DHT22;27067;51.554;7.026;2023-02-28T01:31:03;15.70;73.20
41318;DHT22;27067;51.554;7.026;2023-02-28T01:33:29;15.70;73.30
41318;DHT22;27067;51.554;7.026;2023-02-28T01:36:00;15.70;73.20
41318;DHT22;27067;51.554;7.026;2023-02-28T01:38:26;15.70;73.30
41318;DHT22;27067;51.554;7.026;2023-02-28T01:40:52;15.70;73.20
41318;DHT22;27067;51.554;7.026;2023-02-28T01:43:31;15.70;73.00
41318;DHT22;27067;51.554;7.026;2023-02-28T01:45:58;15.60;73.00
41318;DHT22;27067;51.554;7.026;2023-02-28T01:48:32;15.60;73.10
41318;DHT22;27067;51.554;7.026;2023-02-28T01:51:05;15.60;73.10
41318;DHT22;27067;51.554;7.026;2023-02-28T01:53:39;15.60;73.10
41318;DHT22;27067;51.554;7.026;2023-02-28T01:56:09;15.60;73.00
41318;DHT22;27067;51.554;7.026;2023-02-28T01:58:37;15.60;73.10
41318;DHT22;27067;51.554;7.026;2023-02-28T02:01:03;15.60;73.00
41318;DHT22;27067;51.554;7.026;2023-02-28T02:03:30;15.60;73.10
41318;DHT22;27067;51.554;7.026;2023-02-28T02:05:56;15.60;73.00
41318;DHT22;27067;51.554;7.026;2023-02-28T02:08:25;15.60;72.90
41318;DHT22;27067;51.554;7.026;2023-02-28T02:11:00;15.60;72.80
41318;DHT22;27067;51.554;7.026;2023-02-28T02:13:52;15.60;72.80
41318;DHT22;27067;51.554;7.026;2023-02-28T02:19:36;15.60;72.80
41318;DHT22;27067;51.554;7.026;2023-02-28T02:22:38;17.60;73.90
41318;DHT22;27067;51.554;7.026;2023-02-28T02:25:31;15.60;72.90
41318;DHT22;27067;51.554;7.026;2023-02-28T02:34:17;15.50;73.00
41318;DHT22;27067;51.554;7.026;2023-02-28T02:42:13;15.50;73.00
41318;DHT22;27067;51.554;7.026;2023-02-28T02:44:46;15.50;72.90
41318;DHT22;27067;51.554;7.026;2023-02-28T02:47:17;15.50;73.00
41318;DHT22;27067;51.554;7.026;2023-02-28T02:49:51;15.50;72.90
41318;DHT22;27067;51.554;7.026;2023-02-28T02:52:22;15.50;72.90
41318;DHT22;27067;51.554;7.026;2023-02-28T02:54:50;15.50;72.90
41318;DHT22;27067;51.554;7.026;2023-02-28T02:57:29;15.40;72.70
41318;DHT22;27067;51.554;7.026;2023-02-28T02:59:59;15.50;72.90
41318;DHT22;27067;51.554;7.026;2023-02-28T03:02:27;15.40;72.70
41318;DHT22;27067;51.554;7.026;2023-02-28T03:05:02;15.40;72.70
41318;DHT22;27067;51.554;7.026;2023-02-28T03:07:29;15.40;72.60
41318;DHT22;27067;51.554;7.026;2023-02-28T03:09:56;15.40;72.50
41318;DHT22;27067;51.554;7.026;2023-02-28T03:12:48;15.40;72.80
41318;DHT22;27067;51.554;7.026;2023-02-28T03:15:32;15.40;72.80
41318;DHT22;27067;51.554;7.026;2023-02-28T03:18:18;15.40;72.70
41318;DHT22;27067;51.554;7.026;2023-02-28T03:20:54;15.40;72.90
41318;DHT22;27067;51.554;7.026;2023-02-28T03:26:31;15.40;72.90
41318;DHT22;27067;51.554;7.026;2023-02-28T03:29:04;15.40;72.80
41318;DHT22;27067;51.554;7.026;2023-02-28T03:31:37;15.40;72.90
41318;DHT22;27067;51.554;7.026;2023-02-28T03:34:19;15.30;72.80
41318;DHT22;27067;51.554;7.026;2023-02-28T03:36:52;15.30;72.90
41318;DHT22;27067;51.554;7.026;2023-02-28T03:39:34;15.30;72.90
41318;DHT22;27067;51.554;7.026;2023-02-28T03:42:04;15.30;72.90
41318;DHT22;27067;51.554;7.026;2023-02-28T03:44:39;15.30;72.70
41318;DHT22;27067;51.554;7.026;2023-02-28T03:47:13;15.30;72.80
41318;DHT22;27067;51.554;7.026;2023-02-28T03:52:25;15.20;72.60
41318;DHT22;27067;51.554;7.026;2023-02-28T03:54:55;15.30;72.60
41318;DHT22;27067;51.554;7.026;2023-02-28T03:57:47;15.30;72.60
41318;DHT22;27067;51.554;7.026;2023-02-28T04:00:40;15.30;72.60
41318;DHT22;27067;51.554;7.026;2023-02-28T04:03:08;15.30;72.70
41318;DHT22;27067;51.554;7.026;2023-02-28T04:05:54;15.30;72.70
41318;DHT22;27067;51.554;7.026;2023-02-28T04:08:21;15.20;73.20
41318;DHT22;27067;51.554;7.026;2023-02-28T04:10:53;15.20;72.50
41318;DHT22;27067;51.554;7.026;2023-02-28T04:13:19;15.30;72.70
41318;DHT22;27067;51.554;7.026;2023-02-28T04:15:45;15.20;72.60
41318;DHT22;27067;51.554;7.026;2023-02-28T04:18:11;15.20;72.20
41318;DHT22;27067;51.554;7.026;2023-02-28T04:20:36;15.20;72.30
41318;DHT22;27067;51.554;7.026;2023-02-28T04:23:02;15.20;72.50
41318;DHT22;27067;51.554;7.026;2023-02-28T04:25:27;15.20;72.50
41318;DHT22;27067;51.554;7.026;2023-02-28T04:27:53;15.20;72.40
41318;DHT22;27067;51.554;7.026;2023-02-28T04:30:19;15.20;72.20
41318;DHT22;27067;51.554;7.026;2023-02-28T04:32:45;15.20;72.20
41318;DHT22;27067;51.554;7.026;2023-02-28T04:35:10;15.30;72.10
41318;DHT22;27067;51.554;7.026;2023-02-28T04:37:36;15.20;72.20
41318;DHT22;27067;51.554;7.026;2023-02-28T04:40:03;15.20;72.20
41318;DHT22;27067;51.554;7.026;2023-02-28T04:42:28;15.20;72.10
41318;DHT22;27067;51.554;7.026;2023-02-28T04:45:03;15.20;72.30
41318;DHT22;27067;51.554;7.026;2023-02-28T04:47:29;15.20;72.40
41318;DHT22;27067;51.554;7.026;2023-02-28T04:49:55;15.20;72.60
41318;DHT22;27067;51.554;7.026;2023-02-28T04:52:21;15.30;72.90
41318;DHT22;27067;51.554;7.026;2023-02-28T04:54:47;15.30;72.90
41318;DHT22;27067;51.554;7.026;2023-02-28T04:57:13;15.40;72.90
41318;DHT22;27067;51.554;7.026;2023-02-28T04:59:38;15.50;72.50
41318;DHT22;27067;51.554;7.026;2023-02-28T05:02:04;15.50;72.20
41318;DHT22;27067;51.554;7.026;2023-02-28T05:04:33;15.60;72.00
41318;DHT22;27067;51.554;7.026;2023-02-28T05:07:01;15.70;72.00
41318;DHT22;27067;51.554;7.026;2023-02-28T05:09:27;15.70;72.00
41318;DHT22;27067;51.554;7.026;2023-02-28T05:11:53;15.70;72.10
41318;DHT22;27067;51.554;7.026;2023-02-28T05:14:19;15.80;72.10
41318;DHT22;27067;51.554;7.026;2023-02-28T05:16:45;15.80;72.00
41318;DHT22;27067;51.554;7.026;2023-02-28T05:19:10;15.90;71.90
41318;DHT22;27067;51.554;7.026;2023-02-28T05:21:48;16.00;71.80
41318;DHT22;27067;51.554;7.026;2023-02-28T05:24:14;16.00;71.60
41318;DHT22;27067;51.554;7.026;2023-02-28T05:26:42;16.10;71.40
41318;DHT22;27067;51.554;7.026;2023-02-28T05:29:08;16.10;71.20
41318;DHT22;27067;51.554;7.026;2023-02-28T05:31:34;16.20;71.20
41318;DHT22;27067;51.554;7.026;2023-02-28T05:34:00;16.20;71.10
41318;DHT22;27067;51.554;7.026;2023-02-28T05:36:25;16.20;71.20
41318;DHT22;27067;51.554;7.026;2023-02-28T05:38:51;16.20;71.00
41318;DHT22;27067;51.554;7.026;2023-02-28T05:41:19;16.20;70.70
41318;DHT22;27067;51.554;7.026;2023-02-28T05:43:45;16.20;70.20
41318;DHT22;27067;51.554;7.026;2023-02-28T05:46:12;16.20;69.80
41318;DHT22;27067;51.554;7.026;2023-02-28T05:48:39;16.10;69.40
41318;DHT22;27067;51.554;7.026;2023-02-28T05:51:05;16.10;68.80
41318;DHT22;27067;51.554;7.026;2023-02-28T05:53:31;16.10;68.30
41318;DHT22;27067;51.554;7.026;2023-02-28T05:55:57;16.00;67.90
41318;DHT22;27067;51.554;7.026;2023-02-28T05:58:23;16.00;67.80
41318;DHT22;27067;51.554;7.026;2023-02-28T06:00:51;15.90;67.40
41318;DHT22;27067;51.554;7.026;2023-02-28T06:03:16;15.80;67.20
41318;DHT22;27067;51.554;7.026;2023-02-28T06:05:42;15.80;67.10
41318;DHT22;27067;51.554;7.026;2023-02-28T06:08:08;15.80;66.90
41318;DHT22;27067;51.554;7.026;2023-02-28T06:10:34;15.80;66.90
41318;DHT22;27067;51.554;7.026;2023-02-28T06:13:01;15.70;66.80
41318;DHT22;27067;51.554;7.026;2023-02-28T06:15:30;15.70;66.70
41318;DHT22;27067;51.554;7.026;2023-02-28T06:17:56;15.70;66.70
41318;DHT22;27067;51.554;7.026;2023-02-28T06:20:23;15.70;66.60
41318;DHT22;27067;51.554;7.026;2023-02-28T06:22:49;15.70;66.60
41318;DHT22;27067;51.554;7.026;2023-02-28T06:25:17;15.70;66.70
41318;DHT22;27067;51.554;7.026;2023-02-28T06:27:43;15.70;66.90
41318;DHT22;27067;51.554;7.026;2023-02-28T06:30:10;15.70;66.90
41318;DHT22;27067;51.554;7.026;2023-02-28T06:32:36;15.80;67.00
41318;DHT22;27067;51.554;7.026;2023-02-28T06:35:02;15.90;67.00
41318;DHT22;27067;51.554;7.026;2023-02-28T06:37:28;15.90;66.90
41318;DHT22;27067;51.554;7.026;2023-02-28T06:39:55;16.00;66.80
41318;DHT22;27067;51.554;7.026;2023-02-28T06:42:25;16.00;66.70
41318;DHT22;27067;51.554;7.026;2023-02-28T06:44:56;15.70;66.30
41318;DHT22;27067;51.554;7.026;2023-02-28T06:47:22;16.10;66.40
41318;DHT22;27067;51.554;7.026;2023-02-28T06:49:48;16.10;66.10
41318;DHT22;27067;51.554;7.026;2023-02-28T06:52:14;16.10;66.00
41318;DHT22;27067;51.554;7.026;2023-02-28T06:54:40;16.10;65.90
41318;DHT22;27067;51.554;7.026;2023-02-28T06:57:06;16.00;65.80
41318;DHT22;27067;51.554;7.026;2023-02-28T06:59:32;16.00;65.70
41318;DHT22;27067;51.554;7.026;2023-02-28T07:01:58;16.00;65.70
41318;DHT22;27067;51.554;7.026;2023-02-28T07:04:23;16.00;65.70
41318;DHT22;27067;51.554;7.026;2023-02-28T07:06:49;16.00;65.70
41318;DHT22;27067;51.554;7.026;2023-02-28T07:09:15;15.90;65.60
41318;DHT22;27067;51.554;7.026;2023-02-28T07:11:41;15.90;65.80
41318;DHT22;27067;51.554;7.026;2023-02-28T07:14:08;15.90;65.80
41318;DHT22;27067;51.554;7.026;2023-02-28T07:16:33;15.80;65.70
41318;DHT22;27067;51.554;7.026;2023-02-28T07:18:59;15.80;65.70
41318;DHT22;27067;51.554;7.026;2023-02-28T07:21:25;15.80;65.80
41318;DHT22;27067;51.554;7.026;2023-02-28T07:23:51;15.80;66.50
41318;DHT22;27067;51.554;7.026;2023-02-28T07:26:18;15.80;68.90
41318;DHT22;27067;51.554;7.026;2023-02-28T07:28:46;15.80;69.90
41318;DHT22;27067;51.554;7.026;2023-02-28T07:31:13;15.80;69.50
41318;DHT22;27067;51.554;7.026;2023-02-28T07:33:40;15.80;69.40
41318;DHT22;27067;51.554;7.026;2023-02-28T07:36:14;15.80;69.40
41318;DHT22;27067;51.554;7.026;2023-02-28T07:38:42;15.90;69.30
41318;DHT22;27067;51.554;7.026;2023-02-28T07:41:08;15.90;69.40
41318;DHT22;27067;51.554;7.026;2023-02-28T07:43:35;16.00;70.30
41318;DHT22;27067;51.554;7.026;2023-02-28T07:46:06;16.00;70.70
41318;DHT22;27067;51.554;7.026;2023-02-28T07:48:32;16.10;70.90
41318;DHT22;27067;51.554;7.026;2023-02-28T07:50:59;16.10;70.60
41318;DHT22;27067;51.554;7.026;2023-02-28T07:53:25;16.10;70.20
41318;DHT22;27067;51.554;7.026;2023-02-28T07:55:54;16.30;70.00
41318;DHT22;27067;51.554;7.026;2023-02-28T07:58:20;16.10;69.50
41318;DHT22;27067;51.554;7.026;2023-02-28T08:00:45;16.20;69.20
41318;DHT22;27067;51.554;7.026;2023-02-28T08:03:12;16.10;68.90
41318;DHT22;27067;51.554;7.026;2023-02-28T08:05:39;16.10;68.70
41318;DHT22;27067;51.554;7.026;2023-02-28T08:08:05;16.10;68.60
41318;DHT22;27067;51.554;7.026;2023-02-28T08:10:31;16.10;68.60
41318;DHT22;27067;51.554;7.026;2023-02-28T08:12:57;16.00;68.50
41318;DHT22;27067;51.554;7.026;2023-02-28T08:15:22;16.00;68.50
41318;DHT22;27067;51.554;7.026;2023-02-28T08:17:48;16.00;68.50
41318;DHT22;27067;51.554;7.026;2023-02-28T08:20:14;16.00;68.60
41318;DHT22;27067;51.554;7.026;2023-02-28T08:22:39;15.90;68.60
41318;DHT22;27067;51.554;7.026;2023-02-28T08:25:05;15.90;68.60
41318;DHT22;27067;51.554;7.026;2023-02-28T08:27:32;15.90;68.60
41318;DHT22;27067;51.554;7.026;2023-02-28T08:29:58;15.80;68.50
41318;DHT22;27067;51.554;7.026;2023-02-28T08:32:23;15.80;68.60
41318;DHT22;27067;51.554;7.026;2023-02-28T08:34:49;15.80;68.60
41318;DHT22;27067;51.554;7.026;2023-02-28T08:37:14;15.80;68.60
41318;DHT22;27067;51.554;7.026;2023-02-28T08:39:40;15.80;68.60
41318;DHT22;27067;51.554;7.026;2023-02-28T08:42:06;15.80;68.60
41318;DHT22;27067;51.554;7.026;2023-02-28T08:44:32;15.70;68.50
41318;DHT22;27067;51.554;7.026;2023-02-28T08:46:57;15.70;68.50
41318;DHT22;27067;51.554;7.026;2023-02-28T08:49:23;15.70;68.60
41318;DHT22;27067;51.554;7.026;2023-02-28T08:51:49;15.90;68.70
41318;DHT22;27067;51.554;7.026;2023-02-28T08:54:14;15.70;68.60
41318;DHT22;27067;51.554;7.026;2023-02-28T08:56:45;15.70;68.60
41318;DHT22;27067;51.554;7.026;2023-02-28T08:59:11;15.70;68.60
41318;DHT22;27067;51.554;7.026;2023-02-28T09:01:37;15.70;68.60
41318;DHT22;27067;51.554;7.026;2023-02-28T09:04:03;15.60;68.60
41318;DHT22;27067;51.554;7.026;2023-02-28T09:06:28;15.60;68.60
41318;DHT22;27067;51.554;7.026;2023-02-28T09:08:57;15.60;68.70
41318;DHT22;27067;51.554;7.026;2023-02-28T09:11:24;15.50;68.60
41318;DHT22;27067;51.554;7.026;2023-02-28T09:13:49;15.50;68.70
41318;DHT22;27067;51.554;7.026;2023-02-28T09:16:16;15.50;68.80
41318;DHT22;27067;51.554;7.026;2023-02-28T09:18:43;15.50;68.80
41318;DHT22;27067;51.554;7.026;2023-02-28T09:21:15;15.50;68.80
41318;DHT22;27067;51.554;7.026;2023-02-28T09:23:42;15.40;68.80
41318;DHT22;27067;51.554;7.026;2023-02-28T09:26:23;15.40;70.80
41318;DHT22;27067;51.554;7.026;2023-02-28T09:28:49;15.50;71.10
41318;DHT22;27067;51.554;7.026;2023-02-28T09:31:22;15.50;71.00
41318;DHT22;27067;51.554;7.026;2023-02-28T09:33:52;15.50;71.00
41318;DHT22;27067;51.554;7.026;2023-02-28T09:36:19;15.50;70.90
41318;DHT22;27067;51.554;7.026;2023-02-28T09:38:45;15.50;70.80
41318;DHT22;27067;51.554;7.026;2023-02-28T09:41:23;15.50;70.80
41318;DHT22;27067;51.554;7.026;2023-02-28T09:43:53;15.50;70.50
41318;DHT22;27067;51.554;7.026;2023-02-28T09:49:06;15.50;70.20
41318;DHT22;27067;51.554;7.026;2023-02-28T09:51:46;15.50;70.30
41318;DHT22;27067;51.554;7.026;2023-02-28T09:54:17;15.50;70.50
41318;DHT22;27067;51.554;7.026;2023-02-28T09:56:45;15.60;70.60
41318;DHT22;27067;51.554;7.026;2023-02-28T10:04:40;15.60;70.60
41318;DHT22;27067;51.554;7.026;2023-02-28T10:09:46;15.50;71.30
41318;DHT22;27067;51.554;7.026;2023-02-28T10:12:14;15.50;71.60
41318;DHT22;27067;51.554;7.026;2023-02-28T10:14:45;15.50;71.80
41318;DHT22;27067;51.554;7.026;2023-02-28T10:17:21;15.40;72.10
41318;DHT22;27067;51.554;7.026;2023-02-28T10:19:56;15.40;72.40
41318;DHT22;27067;51.554;7.026;2023-02-28T10:22:58;15.40;72.70
41318;DHT22;27067;51.554;7.026;2023-02-28T10:25:26;15.40;73.00
41318;DHT22;27067;51.554;7.026;2023-02-28T10:28:04;15.40;73.10
41318;DHT22;27067;51.554;7.026;2023-02-28T10:30:34;15.30;73.20
41318;DHT22;27067;51.554;7.026;2023-02-28T10:33:00;15.30;73.40
41318;DHT22;27067;51.554;7.026;2023-02-28T10:35:26;15.30;73.40
41318;DHT22;27067;51.554;7.026;2023-02-28T10:37:58;15.30;73.10
41318;DHT22;27067;51.554;7.026;2023-02-28T10:45:27;15.20;72.70
41318;DHT22;27067;51.554;7.026;2023-02-28T10:47:57;15.20;72.60
41318;DHT22;27067;51.554;7.026;2023-02-28T10:56:14;15.10;72.60
41318;DHT22;27067;51.554;7.026;2023-02-28T10:59:34;15.10;72.50
41318;DHT22;27067;51.554;7.026;2023-02-28T11:01:43;15.00;72.50
41318;DHT22;27067;51.554;7.026;2023-02-28T11:07:17;15.00;72.60
41318;DHT22;27067;51.554;7.026;2023-02-28T11:09:46;14.90;72.50
41318;DHT22;27067;51.554;7.026;2023-02-28T11:12:36;14.90;72.50
41318;DHT22;27067;51.554;7.026;2023-02-28T11:15:26;14.80;72.50
41318;DHT22;27067;51.554;7.026;2023-02-28T11:20:36;14.80;72.60
41318;DHT22;27067;51.554;7.026;2023-02-28T11:23:03;14.80;72.60
41318;DHT22;27067;51.554;7.026;2023-02-28T11:25:35;14.70;72.60
41318;DHT22;27067;51.554;7.026;2023-02-28T11:28:03;14.70;72.00
41318;DHT22;27067;51.554;7.026;2023-02-28T11:30:37;14.70;71.60
41318;DHT22;27067;51.554;7.026;2023-02-28T11:33:28;14.70;71.30
41318;DHT22;27067;51.554;7.026;2023-02-28T11:36:00;14.70;71.70
41318;DHT22;27067;51.554;7.026;2023-02-28T11:38:27;14.70;71.10
41318;DHT22;27067;51.554;7.026;2023-02-28T11:46:46;14.80;70.80
41318;DHT22;27067;51.554;7.026;2023-02-28T11:49:37;14.80;70.40
41318;DHT22;27067;51.554;7.026;2023-02-28T12:01:31;14.80;69.80
41318;DHT22;27067;51.554;7.026;2023-02-28T12:09:44;14.70;69.30
41318;DHT22;27067;51.554;7.026;2023-02-28T12:12:53;14.70;69.20
41318;DHT22;27067;51.554;7.026;2023-02-28T12:21:29;14.60;68.80
41318;DHT22;27067;51.554;7.026;2023-02-28T12:24:10;14.60;68.60
41318;DHT22;27067;51.554;7.026;2023-02-28T12:26:43;14.60;68.50
41318;DHT22;27067;51.554;7.026;2023-02-28T12:34:33;14.50;67.80
41318;DHT22;27067;51.554;7.026;2023-02-28T12:37:03;14.50;67.60
41318;DHT22;27067;51.554;7.026;2023-02-28T12:39:38;14.60;67.40
41318;DHT22;27067;51.554;7.026;2023-02-28T12:42:10;14.60;67.40
41318;DHT22;27067;51.554;7.026;2023-02-28T12:44:55;14.60;68.10
41318;DHT22;27067;51.554;7.026;2023-02-28T12:47:22;14.60;68.00
41318;DHT22;27067;51.554;7.026;2023-02-28T12:49:58;14.60;67.80
41318;DHT22;27067;51.554;7.026;2023-02-28T12:52:51;14.70;67.80
41318;DHT22;27067;51.554;7.026;2023-02-28T12:55:41;14.70;67.60
41318;DHT22;27067;51.554;7.026;2023-02-28T13:09:38;14.80;67.60
41318;DHT22;27067;51.554;7.026;2023-02-28T13:12:24;14.80;67.60
41318;DHT22;27067;51.554;7.026;2023-02-28T13:14:50;14.90;67.60
41318;DHT22;27067;51.554;7.026;2023-02-28T13:17:21;14.80;67.90
41318;DHT22;27067;51.554;7.026;2023-02-28T13:24:55;14.70;68.60
41318;DHT22;27067;51.554;7.026;2023-02-28T13:27:35;14.70;68.80
41318;DHT22;27067;51.554;7.026;2023-02-28T13:30:01;14.70;68.90
41318;DHT22;27067;51.554;7.026;2023-02-28T13:32:32;14.70;69.20
41318;DHT22;27067;51.554;7.026;2023-02-28T13:50:26;14.50;69.80
41318;DHT22;27067;51.554;7.026;2023-02-28T13:53:26;14.50;69.90
41318;DHT22;27067;51.554;7.026;2023-02-28T14:06:58;14.40;70.30
41318;DHT22;27067;51.554;7.026;2023-02-28T14:09:31;14.40;70.20
41318;DHT22;27067;51.554;7.026;2023-02-28T14:12:51;14.40;70.30
41318;DHT22;27067;51.554;7.026;2023-02-28T14:15:41;14.30;70.30
41318;DHT22;27067;51.554;7.026;2023-02-28T14:18:19;14.30;70.30
41318;DHT22;27067;51.554;7.026;2023-02-28T14:20:47;14.30;70.40
41318;DHT22;27067;51.554;7.026;2023-02-28T14:25:54;14.20;70.60
41318;DHT22;27067;51.554;7.026;2023-02-28T14:32:21;14.20;70.90
41318;DHT22;27067;51.554;7.026;2023-02-28T14:34:52;14.20;71.60
41318;DHT22;27067;51.554;7.026;2023-02-28T14:37:27;14.20;71.10
41318;DHT22;27067;51.554;7.026;2023-02-28T14:39:54;14.20;71.20
41318;DHT22;27067;51.554;7.026;2023-02-28T14:42:35;14.30;71.30
41318;DHT22;27067;51.554;7.026;2023-02-28T14:45:04;14.30;71.30
41318;DHT22;27067;51.554;7.026;2023-02-28T14:47:35;14.30;71.50
41318;DHT22;27067;51.554;7.026;2023-02-28T14:50:03;14.30;71.30
41318;DHT22;27067;51.554;7.026;2023-02-28T14:52:31;14.30;71.30
41318;DHT22;27067;51.554;7.026;2023-02-28T14:55:22;14.30;71.30
41318;DHT22;27067;51.554;7.026;2023-02-28T14:57:56;14.40;71.30
41318;DHT22;27067;51.554;7.026;2023-02-28T15:00:28;14.30;71.30
41318;DHT22;27067;51.554;7.026;2023-02-28T15:02:56;14.30;71.30
41318;DHT22;27067;51.554;7.026;2023-02-28T15:05:33;14.30;71.30
41318;DHT22;27067;51.554;7.026;2023-02-28T15:10:38;14.30;71.30
41318;DHT22;27067;51.554;7.026;2023-02-28T15:13:07;14.30;71.40
41318;DHT22;27067;51.554;7.026;2023-02-28T15:18:41;14.20;71.40
41318;DHT22;27067;51.554;7.026;2023-02-28T15:21:34;14.50;71.60
41318;DHT22;27067;51.554;7.026;2023-02-28T15:24:15;14.10;71.40
41318;DHT22;27067;51.554;7.026;2023-02-28T15:26:53;14.20;71.60
41318;DHT22;27067;51.554;7.026;2023-02-28T15:29:22;14.10;71.50
41318;DHT22;27067;51.554;7.026;2023-02-28T15:32:03;14.10;71.60
41318;DHT22;27067;51.554;7.026;2023-02-28T15:34:41;14.10;71.60
41318;DHT22;27067;51.554;7.026;2023-02-28T15:37:48;14.10;71.60
41318;DHT22;27067;51.554;7.026;2023-02-28T15:40:17;14.10;72.30
41318;DHT22;27067;51.554;7.026;2023-02-28T15:43:03;14.10;72.40
41318;DHT22;27067;51.554;7.026;2023-02-28T15:45:37;14.10;71.80
41318;DHT22;27067;51.554;7.026;2023-02-28T15:48:23;14.10;72.00
41318;DHT22;27067;51.554;7.026;2023-02-28T15:54:00;14.10;72.20
41318;DHT22;27067;51.554;7.026;2023-02-28T15:56:32;14.20;72.30
41318;DHT22;27067;51.554;7.026;2023-02-28T15:59:07;14.20;72.30
41318;DHT22;27067;51.554;7.026;2023-02-28T16:01:38;14.30;72.30
41318;DHT22;27067;51.554;7.026;2023-02-28T16:04:17;14.30;72.20
41318;DHT22;27067;51.554;7.026;2023-02-28T16:06:45;14.40;72.20
41318;DHT22;27067;51.554;7.026;2023-02-28T16:09:15;14.30;72.10
41318;DHT22;27067;51.554;7.026;2023-02-28T16:11:45;14.40;72.10
41318;DHT22;27067;51.554;7.026;2023-02-28T16:14:20;14.40;72.20
41318;DHT22;27067;51.554;7.026;2023-02-28T16:16:50;14.40;72.10
41318;DHT22;27067;51.554;7.026;2023-02-28T16:19:17;14.40;72.20
41318;DHT22;27067;51.554;7.026;2023-02-28T16:21:44;14.40;72.20
41318;DHT22;27067;51.554;7.026;2023-02-28T16:24:09;14.40;72.40
41318;DHT22;27067;51.554;7.026;2023-02-28T16:26:36;14.50;72.40
41318;DHT22;27067;51.554;7.026;2023-02-28T16:29:05;14.50;72.40
41318;DHT22;27067;51.554;7.026;2023-02-28T16:31:35;14.60;72.50
41318;DHT22;27067;51.554;7.026;2023-02-28T16:34:02;14.70;72.50
41318;DHT22;27067;51.554;7.026;2023-02-28T16:36:28;14.70;72.30
41318;DHT22;27067;51.554;7.026;2023-02-28T16:38:54;14.80;72.20
41318;DHT22;27067;51.554;7.026;2023-02-28T16:41:25;14.90;72.10
41318;DHT22;27067;51.554;7.026;2023-02-28T16:43:54;15.00;72.00
41318;DHT22;27067;51.554;7.026;2023-02-28T16:46:25;15.00;71.90
41318;DHT22;27067;51.554;7.026;2023-02-28T16:48:50;15.10;71.70
41318;DHT22;27067;51.554;7.026;2023-02-28T16:51:17;15.10;71.70
41318;DHT22;27067;51.554;7.026;2023-02-28T16:53:44;15.10;71.60
41318;DHT22;27067;51.554;7.026;2023-02-28T16:56:18;15.10;71.60
41318;DHT22;27067;51.554;7.026;2023-02-28T16:58:45;15.00;71.60
41318;DHT22;27067;51.554;7.026;2023-02-28T17:01:11;15.00;71.60
41318;DHT22;27067;51.554;7.026;2023-02-28T17:03:36;15.00;71.70
41318;DHT22;27067;51.554;7.026;2023-02-28T17:06:03;14.90;71.60
41318;DHT22;27067;51.554;7.026;2023-02-28T17:08:30;14.90;71.80
41318;DHT22;27067;51.554;7.026;2023-02-28T17:10:57;14.90;71.90
41318;DHT22;27067;51.554;7.026;2023-02-28T17:13:23;14.80;71.90
41318;DHT22;27067;51.554;7.026;2023-02-28T17:15:49;14.80;71.90
41318;DHT22;27067;51.554;7.026;2023-02-28T17:18:16;14.80;72.00
41318;DHT22;27067;51.554;7.026;2023-02-28T17:20:45;14.70;72.60
41318;DHT22;27067;51.554;7.026;2023-02-28T17:23:11;14.70;72.10
41318;DHT22;27067;51.554;7.026;2023-02-28T17:25:36;14.70;72.10
41318;DHT22;27067;51.554;7.026;2023-02-28T17:28:03;14.70;72.20
41318;DHT22;27067;51.554;7.026;2023-02-28T17:30:28;14.60;72.20
41318;DHT22;27067;51.554;7.026;2023-02-28T17:32:55;14.60;72.30
41318;DHT22;27067;51.554;7.026;2023-02-28T17:35:22;14.60;72.40
41318;DHT22;27067;51.554;7.026;2023-02-28T17:37:47;14.60;72.50
41318;DHT22;27067;51.554;7.026;2023-02-28T17:40:15;14.60;72.70
41318;DHT22;27067;51.554;7.026;2023-02-28T17:42:41;14.60;72.80
41318;DHT22;27067;51.554;7.026;2023-02-28T17:45:07;14.60;72.80
41318;DHT22;27067;51.554;7.026;2023-02-28T17:47:33;14.70;72.80
41318;DHT22;27067;51.554;7.026;2023-02-28T17:49:59;14.70;72.60
41318;DHT22;27067;51.554;7.026;2023-02-28T17:52:24;14.80;72.60
41318;DHT22;27067;51.554;7.026;2023-02-28T17:54:50;14.80;73.20
41318;DHT22;27067;51.554;7.026;2023-02-28T17:57:16;14.80;72.50
41318;DHT22;27067;51.554;7.026;2023-02-28T17:59:42;14.90;72.40
41318;DHT22;27067;51.554;7.026;2023-02-28T18:02:10;14.90;72.40
41318;DHT22;27067;51.554;7.026;2023-02-28T18:04:36;15.00;72.30
41318;DHT22;27067;51.554;7.026;2023-02-28T18:07:02;15.00;72.30